createdAt,value
2022-10-23T00:00:39.322Z,100536.25
2022-10-23T00:05:21.458Z,100541.75
2022-10-23T00:10:01.990Z,100536.81
2022-10-23T00:14:42.180Z,100538.94
2022-10-23T00:19:22.446Z,100531.97
2022-10-23T00:24:04.102Z,100537.94
2022-10-23T00:28:45.118Z,100531.09
2022-10-23T00:33:25.550Z,100518.06
2022-10-23T00:38:05.937Z,100528.19
2022-10-23T00:42:47.641Z,100514.88
2022-10-23T00:47:27.807Z,100511.78
2022-10-23T00:52:10.174Z,100510.00
2022-10-23T00:56:50.799Z,100513.84
2022-10-23T01:01:32.592Z,100510.94
2022-10-23T01:06:19.953Z,100505.13
2022-10-23T01:11:11.469Z,100509.78
2022-10-23T01:15:56.337Z,100505.50
2022-10-23T01:20:45.731Z,100506.50
2022-10-23T01:25:36.913Z,100496.63
2022-10-23T01:30:19.252Z,100492.56
2022-10-23T01:35:04.392Z,100493.41
2022-10-23T01:39:49.851Z,100483.59
2022-10-23T01:44:35.021Z,100469.00
2022-10-23T01:49:18.087Z,100468.34
2022-10-23T01:54:01.434Z,100464.38
2022-10-23T01:58:45.295Z,100456.31
2022-10-23T02:03:26.782Z,100453.25
2022-10-23T02:08:08.528Z,100447.47
2022-10-23T02:12:55.953Z,100447.47
2022-10-23T02:17:48.596Z,100448.22
2022-10-23T02:22:33.129Z,100433.75
2022-10-23T02:27:18.346Z,100419.56
2022-10-23T02:31:58.873Z,100416.09
2022-10-23T02:36:39.060Z,100427.94
2022-10-23T02:41:30.302Z,100431.25
2022-10-23T02:46:19.898Z,100418.63
2022-10-23T02:51:07.336Z,100425.31
2022-10-23T02:55:59.033Z,100411.38
2022-10-23T03:00:43.842Z,100399.22
2022-10-23T03:05:29.486Z,100393.38
2022-10-23T03:10:10.736Z,100395.66
2022-10-23T03:14:51.061Z,100364.88
2022-10-23T03:19:31.056Z,100364.09
2022-10-23T03:24:12.476Z,100360.41
2022-10-23T03:28:52.881Z,100354.78
2022-10-23T03:33:33.446Z,100355.66
2022-10-23T03:38:13.565Z,100350.84
2022-10-23T03:42:55.093Z,100350.22
2022-10-23T03:47:40.822Z,100350.22
2022-10-23T03:52:21.244Z,100360.28
2022-10-23T03:57:02.151Z,100351.91
2022-10-23T04:01:43.603Z,100352.97
2022-10-23T04:06:23.707Z,100340.31
2022-10-23T04:11:04.337Z,100343.06
2022-10-23T04:15:49.671Z,100335.81
2022-10-23T04:20:31.542Z,100331.31
2022-10-23T04:25:11.641Z,100320.34
2022-10-23T04:29:54.344Z,100316.50
2022-10-23T04:34:37.302Z,100324.63
2022-10-23T04:39:19.286Z,100316.97
2022-10-23T04:43:59.804Z,100309.34
2022-10-23T04:48:39.927Z,100297.81
2022-10-23T04:53:20.179Z,100310.09
2022-10-23T04:58:02.002Z,100311.69
2022-10-23T05:02:42.630Z,100302.72
2022-10-23T05:07:23.707Z,100295.28
2022-10-23T05:12:04.019Z,100277.97
2022-10-23T05:16:49.894Z,100278.19
2022-10-23T05:21:33.769Z,100271.97
2022-10-23T05:26:13.761Z,100271.78
2022-10-23T05:30:53.915Z,100273.94
2022-10-23T05:35:35.759Z,100261.88
2022-10-23T05:40:15.986Z,100265.81
2022-10-23T05:44:56.343Z,100256.25
2022-10-23T05:49:37.086Z,100248.94
2022-10-23T05:54:18.722Z,100242.88
2022-10-23T05:58:59.073Z,100245.63
2022-10-23T06:03:40.398Z,100249.78
2022-10-23T06:08:20.767Z,100233.38
2022-10-23T06:13:02.287Z,100235.50
2022-10-23T06:17:42.900Z,100235.22
2022-10-23T06:22:23.287Z,100233.56
2022-10-23T06:27:03.623Z,100228.53
2022-10-23T06:31:45.563Z,100223.75
2022-10-23T06:36:27.029Z,100230.31
2022-10-23T06:41:09.012Z,100222.44
2022-10-23T06:45:49.468Z,100216.28
2022-10-23T06:50:32.080Z,100215.41
2022-10-23T06:55:12.442Z,100207.78
2022-10-23T06:59:52.699Z,100206.38
2022-10-23T07:04:32.760Z,100208.44
2022-10-23T07:09:14.465Z,100199.00
2022-10-23T07:13:54.970Z,100197.34
2022-10-23T07:23:20.241Z,100193.16
2022-10-23T07:28:01.915Z,100186.22
2022-10-23T07:32:42.324Z,100191.53
2022-10-23T07:37:22.572Z,100196.03
2022-10-23T07:42:03.013Z,100188.00
2022-10-23T07:46:44.478Z,100165.53
2022-10-23T07:51:24.949Z,100152.16
2022-10-23T07:56:13.280Z,100130.44
2022-10-23T08:00:58.619Z,100120.50
2022-10-23T08:05:40.363Z,100108.22
2022-10-23T08:10:20.886Z,100103.06
2022-10-23T08:15:01.653Z,100102.88
2022-10-23T08:19:46.417Z,100105.38
2022-10-23T08:24:28.141Z,100119.53
2022-10-23T08:29:08.280Z,100122.03
2022-10-23T08:38:35.804Z,100101.66
2022-10-23T08:43:22.992Z,100085.31
2022-10-23T08:48:10.406Z,100073.63
2022-10-23T08:52:56.005Z,100073.78
2022-10-23T08:57:43.752Z,100069.25
2022-10-23T09:02:28.095Z,100052.22
2022-10-23T09:07:34.094Z,100056.75
2022-10-23T09:12:16.890Z,100039.78
2022-10-23T09:17:08.914Z,100037.50
2022-10-23T09:21:51.415Z,100035.59
2022-10-23T09:26:31.921Z,100041.31
2022-10-23T09:31:13.542Z,100030.06
2022-10-23T09:35:57.398Z,100016.91
2022-10-23T09:40:42.283Z,99995.03
2022-10-23T09:45:24.522Z,99987.03
2022-10-23T09:50:05.140Z,99988.13
2022-10-23T09:54:48.172Z,99985.19
2022-10-23T09:59:32.112Z,99978.22
2022-10-23T10:04:12.092Z,99964.69
2022-10-23T10:08:55.599Z,99969.72
2022-10-23T10:14:11.943Z,99954.75
2022-10-23T10:19:01.772Z,99954.75
2022-10-23T10:23:48.573Z,99948.63
2022-10-23T10:28:39.590Z,99952.53
2022-10-23T10:33:29.042Z,99961.91
2022-10-23T10:38:38.506Z,99950.88
2022-10-23T10:43:31.194Z,99935.38
2022-10-23T10:48:24.988Z,99918.97
2022-10-23T10:53:17.513Z,99916.50
2022-10-23T10:58:03.756Z,99902.69
2022-10-23T11:02:47.069Z,99888.03
2022-10-23T11:07:34.677Z,99887.47
2022-10-23T11:12:19.016Z,99894.41
2022-10-23T11:17:10.186Z,99892.75
2022-10-23T11:21:58.577Z,99882.22
2022-10-23T11:26:52.954Z,99869.19
2022-10-23T11:31:41.216Z,99842.72
2022-10-23T11:36:40.484Z,99831.00
2022-10-23T11:41:26.705Z,99827.44
2022-10-23T11:46:15.303Z,99805.22
2022-10-23T11:51:00.349Z,99792.81
2022-10-23T11:55:58.646Z,99786.41
2022-10-23T12:00:50.578Z,99781.50
2022-10-23T12:05:36.385Z,99791.13
2022-10-23T12:10:27.514Z,99788.88
2022-10-23T12:15:20.730Z,99787.63
2022-10-23T12:20:20.403Z,99789.88
2022-10-23T12:25:04.473Z,99772.63
2022-10-23T12:30:02.696Z,99762.69
2022-10-23T12:34:58.284Z,99754.03
2022-10-23T12:39:39.281Z,99745.28
2022-10-23T12:44:19.978Z,99727.88
2022-10-23T12:49:01.956Z,99731.47
2022-10-23T12:53:49.242Z,99728.66
2022-10-23T12:58:32.159Z,99744.22
2022-10-23T13:03:12.870Z,99741.97
2022-10-23T13:07:53.170Z,99749.28
2022-10-23T13:12:36.413Z,99732.88
2022-10-23T13:17:16.709Z,99714.56
2022-10-23T13:21:57.015Z,99705.38
2022-10-23T13:26:45.052Z,99716.47
2022-10-23T13:31:29.594Z,99692.94
2022-10-23T13:36:22.697Z,99696.38
2022-10-23T13:41:04.797Z,99694.03
2022-10-23T13:45:45.099Z,99679.78
2022-10-23T13:50:26.701Z,99684.69
2022-10-23T13:55:19.442Z,99681.31
2022-10-23T13:59:59.623Z,99684.22
2022-10-23T14:04:39.589Z,99676.06
2022-10-23T14:09:21.111Z,99668.53
2022-10-23T14:14:01.620Z,99670.81
2022-10-23T14:18:42.335Z,99693.28
2022-10-23T14:23:22.453Z,99685.41
2022-10-23T14:28:04.395Z,99683.94
2022-10-23T14:32:45.500Z,99684.84
2022-10-23T14:37:25.829Z,99684.97
2022-10-23T14:42:06.090Z,99698.63
2022-10-23T14:46:47.852Z,99693.44
2022-10-23T14:51:31.018Z,99692.88
2022-10-23T14:56:11.640Z,99679.63
2022-10-23T15:00:59.168Z,99683.56
2022-10-23T15:05:43.818Z,99694.44
2022-10-23T15:10:23.975Z,99688.94
2022-10-23T15:15:04.628Z,99692.03
2022-10-23T15:19:44.606Z,99686.56
2022-10-23T15:24:26.724Z,99697.50
2022-10-23T15:29:06.781Z,99718.63
2022-10-23T15:33:46.743Z,99764.84
2022-10-23T15:38:26.756Z,99786.94
2022-10-23T15:43:11.339Z,99784.75
2022-10-23T15:47:53.644Z,99768.16
2022-10-23T15:52:33.493Z,99760.09
2022-10-23T15:57:13.616Z,99763.38
2022-10-23T16:01:55.608Z,99738.75
2022-10-23T16:06:35.923Z,99738.75
2022-10-23T16:11:22.405Z,99719.97
2022-10-23T16:16:04.397Z,99727.16
2022-10-23T16:20:45.843Z,99690.38
2022-10-23T16:25:25.921Z,99662.72
2022-10-23T16:30:09.357Z,99651.41
2022-10-23T16:34:49.351Z,99637.00
2022-10-23T16:39:31.568Z,99674.03
2022-10-23T16:44:11.857Z,99691.19
2022-10-23T16:48:52.931Z,99684.53
2022-10-23T16:53:33.296Z,99669.06
2022-10-23T16:58:14.814Z,99695.06
2022-10-23T17:02:55.039Z,99717.72
2022-10-23T17:07:37.194Z,99694.50
2022-10-23T17:12:18.028Z,99671.84
2022-10-23T17:17:02.005Z,99688.16
2022-10-23T17:21:43.241Z,99680.16
2022-10-23T17:26:23.722Z,99695.09
2022-10-23T17:31:03.768Z,99705.84
2022-10-23T17:35:46.377Z,99712.50
2022-10-23T17:40:30.860Z,99690.66
2022-10-23T17:45:11.756Z,99703.94
2022-10-23T17:49:51.937Z,99712.78
2022-10-23T17:54:33.588Z,99715.00
2022-10-23T17:59:16.044Z,99692.34
2022-10-23T18:03:58.125Z,99678.22
2022-10-23T18:08:40.138Z,99678.50
2022-10-23T18:13:21.726Z,99662.16
2022-10-23T18:18:02.078Z,99653.84
2022-10-23T18:22:42.776Z,99644.75
2022-10-23T18:27:23.015Z,99655.53
2022-10-23T18:32:05.194Z,99656.34
2022-10-23T18:36:46.050Z,99641.69
2022-10-23T18:41:29.101Z,99624.88
2022-10-23T18:46:09.186Z,99629.28
2022-10-23T18:50:50.792Z,99632.59
2022-10-23T18:55:31.016Z,99626.22
2022-10-23T19:00:13.218Z,99632.53
2022-10-23T19:04:53.738Z,99625.34
2022-10-23T19:09:36.337Z,99620.06
2022-10-23T19:14:16.650Z,99619.03
2022-10-23T19:18:59.584Z,99620.41
2022-10-23T19:23:41.925Z,99604.97
2022-10-23T19:28:23.576Z,99621.00
2022-10-23T19:33:04.034Z,99611.88
2022-10-23T19:37:44.806Z,99594.75
2022-10-23T19:42:25.129Z,99582.28
2022-10-23T19:47:06.658Z,99569.84
2022-10-23T19:51:50.977Z,99583.94
2022-10-23T19:56:31.607Z,99586.69
2022-10-23T20:01:14.856Z,99654.44
2022-10-23T20:05:56.445Z,99732.75
2022-10-23T20:10:41.769Z,99802.25
2022-10-23T20:15:22.361Z,99778.88
2022-10-23T20:20:02.766Z,99731.97
2022-10-23T20:24:44.296Z,99732.56
2022-10-23T20:29:25.868Z,99743.84
2022-10-23T20:34:06.928Z,99740.19
2022-10-23T20:38:47.048Z,99736.53
2022-10-23T20:43:28.714Z,99734.31
2022-10-23T20:48:09.004Z,99738.41
2022-10-23T20:52:49.444Z,99737.03
2022-10-23T20:57:29.413Z,99739.63
2022-10-23T21:02:11.844Z,99744.97
2022-10-23T21:07:10.705Z,99741.38
2022-10-23T21:11:51.764Z,99748.63
2022-10-23T21:16:34.781Z,99738.72
2022-10-23T21:21:19.319Z,99737.16
2022-10-23T21:26:02.246Z,99736.06
2022-10-23T21:30:44.807Z,99729.19
2022-10-23T21:35:27.787Z,99735.50
2022-10-23T21:40:13.720Z,99732.84
2022-10-23T21:44:54.113Z,99726.22
2022-10-23T21:49:34.049Z,99721.84
2022-10-23T21:54:15.104Z,99716.38
2022-10-23T21:58:57.235Z,99713.66
2022-10-23T22:03:37.269Z,99716.94
2022-10-23T22:08:17.212Z,99714.50
2022-10-23T22:12:57.284Z,99720.03
2022-10-23T22:17:38.608Z,99705.19
2022-10-23T22:22:18.909Z,99704.69
2022-10-23T22:26:59.195Z,99699.16
2022-10-23T22:31:44.167Z,99697.72
2022-10-23T22:36:28.854Z,99686.69
2022-10-23T22:41:09.775Z,99696.34
2022-10-23T22:45:50.027Z,99692.19
2022-10-23T22:50:30.191Z,99691.34
2022-10-23T22:55:12.043Z,99690.94
2022-10-23T22:59:52.022Z,99679.06
2022-10-23T23:04:37.808Z,99686.47
2022-10-23T23:09:18.859Z,99693.56
2022-10-23T23:14:00.963Z,99692.53
2022-10-23T23:18:41.627Z,99675.97
2022-10-23T23:23:22.089Z,99689.66
2022-10-23T23:28:02.484Z,99676.41
2022-10-23T23:32:44.380Z,99674.84
2022-10-23T23:37:24.790Z,99677.53
2022-10-23T23:42:05.111Z,99680.81
2022-10-23T23:46:45.612Z,99657.63
2022-10-23T23:51:27.417Z,99639.66
2022-10-23T23:56:07.722Z,99616.53
